Time;durP1;ratioP1;P1;durP2;ratioP2;P2;SDS_P1;SDS_P2;PMS_P1;PMS_P2;Temp;Humidity;BMP_temperature;BMP_pressure;BME280_temperature;BME280_humidity;BME280_pressure;Samples;Min_cycle;Max_cycle;Signal;HPM_P1;HPM_P2
2022/11/10 00:00:08;;;;;;;4.07;0.60;;;9.60;99.90;;;;;;6244243;23;20091;-87
2022/11/10 00:03:44;;;;;;;;;;;;;;;;;;;;;
2022/11/10 00:06:55;;;;;;;7.70;1.35;;;9.60;99.90;;;;;;6244707;23;20020;-88
2022/11/10 00:10:18;;;;;;;;;;;;;;;;;;;;;
2022/11/10 00:13:34;;;;;;;4.82;0.80;;;9.50;99.90;;;;;;6168077;23;20048;-87
2022/11/10 00:20:48;;;;;;;2.53;0.70;;;9.50;99.90;;;;;;6245448;23;20024;-86
2022/11/10 00:24:09;;;;;;;;;;;;;;;;;;;;;
2022/11/10 00:27:46;;;;;;;;;;;;;;;;;;;;;
2022/11/10 00:31:02;;;;;;;2.83;0.70;;;9.40;99.90;;;;;;6240635;23;20390;-88
2022/11/10 00:34:38;;;;;;;;;;;;;;;;;;;;;
2022/11/10 00:38:02;;;;;;;7.80;0.75;;;9.40;99.90;;;;;;6161785;23;20028;-86
2022/11/10 00:41:14;;;;;;;;;;;;;;;;;;;;;
2022/11/10 00:44:08;;;;;;;9.20;1.00;;;9.50;99.90;;;;;;6215100;23;20020;-88
2022/11/10 00:47:37;;;;;;;1.85;0.60;;;9.50;99.90;;;;;;6215067;23;20091;-87
2022/11/10 00:51:10;;;;;;;1.80;0.70;;;9.50;99.90;;;;;;6214950;23;20388;-87
2022/11/10 00:54:10;;;;;;;3.33;0.70;;;9.50;99.90;;;;;;6214835;23;20443;-87
2022/11/10 00:57:09;;;;;;;3.22;0.80;;;9.50;99.90;;;;;;6214765;23;20352;-87
2022/11/10 01:00:30;;;;;;;;;;;;;;;;;;;;;
2022/11/10 01:03:46;;;;;;;5.35;0.80;;;9.50;99.90;;;;;;6162527;23;20017;-88
2022/11/10 01:07:06;;;;;;;;;;;;;;;;;;;;;
2022/11/10 01:10:14;;;;;;;2.70;0.70;;;9.60;99.90;;;;;;6212917;23;20016;-87
2022/11/10 01:13:43;;;;;;;4.22;1.33;;;9.50;99.90;;;;;;6187858;23;20071;-87
2022/11/10 01:17:04;;;;;;;4.57;0.52;;;9.50;99.90;;;;;;6215162;23;20091;-88
2022/11/10 01:20:29;;;;;;;2.80;0.90;;;9.50;99.90;;;;;;6217062;23;20418;-86
2022/11/10 01:23:32;;;;;;;3.05;0.73;;;9.50;99.90;;;;;;6216879;23;20103;-85
2022/11/10 01:27:08;;;;;;;;;;;;;;;;;;;;;
2022/11/10 01:30:26;;;;;;;4.43;0.60;;;9.50;99.90;;;;;;6215351;23;20356;-88
2022/11/10 01:34:04;;;;;;;;;;;;;;;;;;;;;
2022/11/10 01:37:24;;;;;;;;;;;;;;;;;;;;;
2022/11/10 01:40:50;;;;;;;;;;;;;;;;;;;;;
2022/11/10 01:43:57;;;;;;;7.13;0.80;;;9.40;99.90;;;;;;6169212;23;20016;-86
2022/11/10 01:47:35;;;;;;;2.92;0.80;;;9.40;99.90;;;;;;6246871;23;20027;-86
2022/11/10 01:50:48;;;;;;;6.05;0.85;;;9.40;99.90;;;;;;6247069;23;20455;-84
2022/11/10 01:57:51;;;;;;;4.03;0.93;;;9.40;99.90;;;;;;6246869;23;20072;-87
2022/11/10 02:01:10;;;;;;;;;;;;;;;;;;;;;
2022/11/10 02:04:21;;;;;;;4.80;1.33;;;9.40;99.90;;;;;;6193882;23;20051;-88
2022/11/10 02:07:16;;;;;;;6.03;0.93;;;9.40;99.90;;;;;;6246662;23;20024;-87
2022/11/10 02:10:44;;;;;;;;;;;;;;;;;;;;;
2022/11/10 02:14:08;;;;;;;2.88;0.98;;;9.40;99.90;;;;;;6246697;23;20031;-88
2022/11/10 02:17:41;;;;;;;3.65;0.70;;;9.40;99.90;;;;;;6246766;23;20362;-85
2022/11/10 02:21:11;;;;;;;7.20;1.33;;;9.60;99.90;;;;;;6246217;23;20099;-86
2022/11/10 02:24:17;;;;;;;4.65;1.05;;;9.40;99.90;;;;;;6219323;23;20454;-87
2022/11/10 02:27:30;;;;;;;;;;;;;;;;;;;;;
2022/11/10 02:30:24;;;;;;;7.15;1.10;;;9.40;99.90;;;;;;6218418;23;20016;-87
2022/11/10 02:33:29;;;;;;;4.80;1.08;;;9.40;99.90;;;;;;6246514;23;20013;-86
2022/11/10 02:36:47;;;;;;;4.18;1.00;;;9.40;99.90;;;;;;6246519;23;20083;-86
2022/11/10 02:40:04;;;;;;;2.65;0.90;;;9.40;99.90;;;;;;6246595;23;20459;-86
2022/11/10 02:43:18;;;;;;;5.85;0.80;;;9.40;99.90;;;;;;6246314;23;20020;-87
2022/11/10 02:46:42;;;;;;;;;;;;;;;;;;;;;
2022/11/10 02:50:16;;;;;;;;;;;;;;;;;;;;;
2022/11/10 02:53:54;;;;;;;;;;;;;;;;;;;;;
2022/11/10 02:56:51;;;;;;;3.58;1.00;;;9.40;99.90;;;;;;6192479;23;20016;-87
2022/11/10 03:00:10;;;;;;;5.63;1.48;;;9.40;99.90;;;;;;6168709;23;20026;-88
2022/11/10 03:03:40;;;;;;;;;;;;;;;;;;;;;
2022/11/10 03:06:58;;;;;;;8.63;1.25;;;9.40;99.90;;;;;;6241375;23;20022;-86
2022/11/10 03:09:41;;;;;;;1.88;0.80;;;9.40;99.90;;;;;;6246619;23;20016;-86
2022/11/10 03:12:23;;;;;;;5.70;1.05;;;9.40;99.90;;;;;;6245678;23;20016;-87
2022/11/10 03:15:50;;;;;;;5.40;1.05;;;9.40;99.90;;;;;;6245833;23;20022;-85
2022/11/10 03:19:11;;;;;;;4.65;1.05;;;9.40;99.90;;;;;;6246295;23;20032;-87
2022/11/10 03:22:56;;;;;;;;;;;;;;;;;;;;;
2022/11/10 03:26:18;;;;;;;3.65;0.80;;;9.40;99.90;;;;;;6241403;23;20020;-85
2022/11/10 03:29:34;;;;;;;;;;;;;;;;;;;;;
2022/11/10 03:32:24;;;;;;;5.30;1.10;;;9.30;99.90;;;;;;6216960;23;20333;-85
2022/11/10 03:35:52;;;;;;;;;;;;;;;;;;;;;
2022/11/10 03:39:15;;;;;;;;;;;;;;;;;;;;;
2022/11/10 03:42:50;;;;;;;;;;;;;;;;;;;;;
2022/11/10 03:46:16;;;;;;;;;;;;;;;;;;;;;
2022/11/10 03:49:42;;;;;;;;;;;;;;;;;;;;;
2022/11/10 03:53:02;;;;;;;5.38;1.30;;;9.30;99.90;;;;;;6213172;23;20035;-86
2022/11/10 03:56:25;;;;;;;;;;;;;;;;;;;;;
2022/11/10 03:59:53;;;;;;;3.25;0.88;;;9.30;99.90;;;;;;6215208;23;20021;-88
2022/11/10 04:03:38;;;;;;;6.90;1.02;;;9.30;99.90;;;;;;6215510;23;20028;-86
2022/11/10 04:09:53;;;;;;;1.38;0.82;;;9.30;99.90;;;;;;6215138;23;20403;-87
2022/11/10 04:16:52;;;;;;;3.72;0.80;;;9.50;99.90;;;;;;6214988;23;20029;-87
2022/11/10 04:20:26;;;;;;;6.32;0.82;;;9.30;99.90;;;;;;6214942;23;20016;-85
2022/11/10 04:23:50;;;;;;;2.38;1.15;;;9.30;99.90;;;;;;6215653;23;20030;-86
2022/11/10 04:27:20;;;;;;;2.92;1.23;;;9.30;99.90;;;;;;6215152;23;20021;-87
2022/11/10 04:30:21;;;;;;;7.60;1.30;;;9.30;99.90;;;;;;6162414;23;20051;-86
2022/11/10 04:33:50;;;;;;;;;;;;;;;;;;;;;
2022/11/10 04:37:14;;;;;;;8.68;1.80;;;9.30;99.90;;;;;;6203309;23;20487;-87
2022/11/10 04:40:23;;;;;;;7.78;1.55;;;9.30;99.90;;;;;;6242391;23;20028;-86
2022/11/10 04:43:37;;;;;;;4.78;1.00;;;9.40;99.90;;;;;;6243772;23;20024;-87
2022/11/10 04:46:50;;;;;;;;;;;;;;;;;;;;;
2022/11/10 04:50:00;;;;;;;7.70;1.27;;;9.40;99.90;;;;;;6167551;23;20016;-88
2022/11/10 04:53:24;;;;;;;;;;;;;;;;;;;;;
2022/11/10 04:56:35;;;;;;;5.00;1.30;;;9.50;99.90;;;;;;6216244;23;20443;-87
2022/11/10 05:00:06;;;;;;;7.63;1.80;;;9.50;99.90;;;;;;6152230;23;20025;-87
2022/11/10 05:03:32;;;;;;;4.97;1.33;;;9.50;99.90;;;;;;6152277;23;20022;-88
2022/11/10 05:06:56;;;;;;;9.17;1.60;;;9.50;99.90;;;;;;6152420;23;20052;-87
2022/11/10 05:09:59;;;;;;;11.38;1.42;;;9.60;99.90;;;;;;6152533;23;20372;-87
2022/11/10 05:13:22;;;;;;;;;;;;;;;;;;;;;
2022/11/10 05:16:44;;;;;;;;;;;;;;;;;;;;;
2022/11/10 05:20:09;;;;;;;;;;;;;;;;;;;;;
2022/11/10 05:27:04;;;;;;;;;;;;;;;;;;;;;
2022/11/10 05:30:19;;;;;;;5.60;1.13;;;9.60;99.90;;;;;;6152552;23;20025;-87
2022/11/10 05:33:44;;;;;;;;;;;;;;;;;;;;;
2022/11/10 05:37:08;;;;;;;7.25;1.67;;;9.60;99.90;;;;;;6125503;23;20053;-86
2022/11/10 05:40:22;;;;;;;9.13;1.67;;;9.60;99.90;;;;;;6125116;23;20194;-87
2022/11/10 05:43:32;;;;;;;9.45;1.38;;;9.70;99.90;;;;;;6127081;23;20376;-87
2022/11/10 05:46:45;;;;;;;;;;;;;;;;;;;;;
2022/11/10 05:50:00;;;;;;;6.60;1.25;;;9.80;99.90;;;;;;6124580;23;20047;-87
2022/11/10 05:53:38;;;;;;;4.22;1.13;;;9.80;99.90;;;;;;6152146;23;20022;-84
2022/11/10 05:57:08;;;;;;;;;;;;;;;;;;;;;
2022/11/10 06:00:24;;;;;;;;;;;;;;;;;;;;;
2022/11/10 06:04:16;;;;;;;5.68;1.20;;;9.80;99.90;;;;;;6153028;23;20030;-84
2022/11/10 06:07:44;;;;;;;7.30;0.80;;;9.80;99.90;;;;;;6216486;23;20455;-86
2022/11/10 06:11:07;;;;;;;;;;;;;;;;;;;;;
2022/11/10 06:14:05;;;;;;;4.93;0.80;;;9.80;99.90;;;;;;6216716;23;20502;-84
2022/11/10 06:17:18;;;;;;;;;;;;;;;;;;;;;
2022/11/10 06:20:34;;;;;;;11.25;1.98;;;9.80;99.90;;;;;;6164011;23;20369;-87
2022/11/10 06:24:06;;;;;;;7.60;0.80;;;9.80;99.90;;;;;;6216457;23;20031;-86
2022/11/10 06:27:27;;;;;;;9.32;1.10;;;9.70;99.90;;;;;;6216376;23;20024;-86
2022/11/10 06:31:02;;;;;;;;;;;;;;;;;;;;;
2022/11/10 06:34:12;;;;;;;3.22;0.80;;;9.70;99.90;;;;;;6216065;23;20016;-87
2022/11/10 06:37:12;;;;;;;2.72;0.90;;;9.70;99.90;;;;;;6188839;23;20351;-86
2022/11/10 06:39:59;;;;;;;5.30;1.02;;;9.70;99.90;;;;;;6216233;23;20071;-86
2022/11/10 06:42:47;;;;;;;5.55;1.08;;;9.70;99.90;;;;;;6138842;23;20017;-87
2022/11/10 06:45:58;;;;;;;;;;;;;;;;;;;;;
2022/11/10 06:49:02;;;;;;;;;;;;;;;;;;;;;
2022/11/10 06:52:22;;;;;;;;;;;;;;;;;;;;;
2022/11/10 06:55:25;;;;;;;7.03;1.00;;;9.90;99.90;;;;;;6215684;23;20380;-83
2022/11/10 06:58:42;;;;;;;7.03;1.20;;;9.90;99.90;;;;;;6216071;23;20048;-84
2022/11/10 07:02:02;;;;;;;9.07;1.02;;;9.90;99.90;;;;;;6216041;23;20052;-83
2022/11/10 07:05:05;;;;;;;9.50;1.02;;;9.90;99.90;;;;;;6213688;23;20067;-84
2022/11/10 07:08:28;;;;;;;7.72;1.40;;;10.00;99.90;;;;;;6215651;23;20107;-83
2022/11/10 07:11:30;;;;;;;8.55;1.20;;;10.00;99.90;;;;;;6213201;23;20035;-85
2022/11/10 07:14:36;;;;;;;;;;;;;;;;;;;;;
2022/11/10 07:17:49;;;;;;;3.78;1.00;;;10.10;99.90;;;;;;6188531;23;20020;-83
2022/11/10 07:20:48;;;;;;;6.85;1.52;;;10.10;99.90;;;;;;6187473;23;20041;-84
2022/11/10 07:23:48;;;;;;;9.80;1.92;;;9.90;99.90;;;;;;6215685;23;20347;-83
2022/11/10 07:27:01;;;;;;;;;;;;;;;;;;;;;
2022/11/10 07:29:53;;;;;;;8.20;1.38;;;10.20;99.90;;;;;;6215755;23;20082;-84
2022/11/10 07:33:25;;;;;;;12.15;2.15;;;10.20;99.90;;;;;;6215696;23;20099;-84
2022/11/10 07:36:35;;;;;;;11.00;1.95;;;10.20;99.90;;;;;;6213401;23;20028;-84
2022/11/10 07:39:25;;;;;;;9.40;1.45;;;10.30;99.90;;;;;;6215760;23;20339;-84
2022/11/10 07:42:28;;;;;;;5.68;1.23;;;10.30;99.90;;;;;;6238508;23;20028;-84
2022/11/10 07:45:35;;;;;;;8.93;1.17;;;10.30;99.90;;;;;;6243253;23;20016;-83
2022/11/10 07:48:47;;;;;;;20.02;1.88;;;10.30;99.90;;;;;;6245997;23;20020;-84
2022/11/10 07:51:33;;;;;;;5.80;0.93;;;10.30;99.90;;;;;;6245553;23;20320;-83
2022/11/10 07:54:38;;;;;;;9.68;0.90;;;10.30;99.90;;;;;;6245505;23;20458;-83
2022/11/10 07:57:35;;;;;;;8.95;1.63;;;10.30;99.90;;;;;;6242103;23;20012;-84
2022/11/10 08:00:36;;;;;;;7.30;1.25;;;10.30;99.90;;;;;;6217789;23;20016;-83
2022/11/10 08:03:44;;;;;;;;;;;;;;;;;;;;;
2022/11/10 08:06:53;;;;;;;;;;;;;;;;;;;;;
2022/11/10 08:09:43;;;;;;;9.05;1.13;;;10.40;99.90;;;;;;6245430;23;20016;-84
2022/11/10 08:12:35;;;;;;;10.05;1.60;;;10.40;99.90;;;;;;6217682;23;20020;-85
2022/11/10 08:15:58;;;;;;;;;;;;;;;;;;;;;
2022/11/10 08:19:05;;;;;;;9.52;1.45;;;10.50;99.90;;;;;;6233430;23;20020;-85
2022/11/10 08:22:31;;;;;;;;;;;;;;;;;;;;;
2022/11/10 08:25:21;;;;;;;8.95;1.20;;;10.60;99.90;;;;;;6192218;23;20020;-89
2022/11/10 08:28:33;;;;;;;;;;;;;;;;;;;;;
2022/11/10 08:31:08;;;;;;;11.60;1.20;;;10.70;99.90;;;;;;6169431;23;20016;-85
2022/11/10 08:33:57;;;;;;;11.13;1.30;;;10.30;99.90;;;;;;6245456;23;20020;-85
2022/11/10 08:36:55;;;;;;;;;;;;;;;;;;;;;
2022/11/10 08:40:18;;;;;;;7.05;1.25;;;10.90;99.90;;;;;;6245755;23;20028;-85
2022/11/10 08:43:06;;;;;;;7.20;0.95;;;11.00;99.90;;;;;;6214830;23;20452;-85
2022/11/10 08:45:50;;;;;;;8.60;1.30;;;11.10;99.90;;;;;;6213579;23;20017;-86
2022/11/10 08:48:56;;;;;;;;;;;;;;;;;;;;;
2022/11/10 08:52:20;;;;;;;8.35;1.42;;;11.20;99.90;;;;;;6215252;23;20035;-85
2022/11/10 08:55:26;;;;;;;5.38;1.38;;;11.20;99.90;;;;;;6186712;23;20017;-85
2022/11/10 08:58:20;;;;;;;8.90;1.92;;;11.30;99.90;;;;;;6213565;23;20351;-86
2022/11/10 09:01:23;;;;;;;9.63;1.08;;;11.30;99.90;;;;;;6188621;23;20028;-85
2022/11/10 09:04:37;;;;;;;14.80;1.77;;;11.40;99.90;;;;;;6212429;23;20016;-86
2022/11/10 09:07:47;;;;;;;;;;;;;;;;;;;;;
2022/11/10 09:10:38;;;;;;;12.63;2.45;;;11.60;99.90;;;;;;6186875;23;20017;-86
2022/11/10 09:13:56;;;;;;;5.72;1.33;;;11.90;99.90;;;;;;6215468;23;20021;-86
2022/11/10 09:16:36;;;;;;;10.25;1.77;;;11.80;99.90;;;;;;6213298;23;20076;-85
2022/11/10 09:19:23;;;;;;;7.90;2.28;;;11.80;99.90;;;;;;6187654;23;20104;-85
2022/11/10 09:22:39;;;;;;;9.80;2.33;;;11.80;99.90;;;;;;6215559;23;20031;-86
2022/11/10 09:25:40;;;;;;;8.68;1.65;;;11.90;99.90;;;;;;6214893;23;20079;-85
2022/11/10 09:29:02;;;;;;;12.88;1.88;;;12.00;99.90;;;;;;6215251;23;20020;-86
2022/11/10 09:32:05;;;;;;;;;;;;;;;;;;;;;
2022/11/10 09:35:12;;;;;;;11.93;1.48;;;12.10;99.90;;;;;;6185878;23;20075;-86
2022/11/10 09:38:23;;;;;;;10.57;1.20;;;12.20;99.90;;;;;;6215986;23;20035;-85
2022/11/10 09:41:50;;;;;;;13.30;1.75;;;12.20;99.90;;;;;;6225273;23;20031;-87
2022/11/10 09:44:56;;;;;;;11.18;1.73;;;12.20;99.90;;;;;;6247043;23;20097;-86
2022/11/10 09:47:55;;;;;;;7.97;2.17;;;12.30;99.90;;;;;;6217002;23;20020;-87
2022/11/10 09:51:33;;;;;;;6.57;1.52;;;12.30;99.90;;;;;;6247154;23;20031;-91
2022/11/10 09:54:45;;;;;;;14.77;2.17;;;12.30;99.90;;;;;;6219811;23;20111;-87
2022/11/10 09:57:52;;;;;;;12.63;2.10;;;12.40;99.90;;;;;;6247465;23;20027;-87
2022/11/10 10:01:12;;;;;;;;;;;;;;;;;;;;;
2022/11/10 10:04:31;;;;;;;;;;;;;;;;;;;;;
2022/11/10 10:08:03;;;;;;;13.38;2.78;;;12.40;99.90;;;;;;6245631;23;20087;-87
2022/11/10 10:11:23;;;;;;;13.07;2.67;;;12.50;99.90;;;;;;6219313;23;20343;-88
2022/11/10 10:14:44;;;;;;;11.82;2.70;;;12.60;99.90;;;;;;6194778;23;20048;-87
2022/11/10 10:18:12;;;;;;;;;;;;;;;;;;;;;
2022/11/10 10:21:33;;;;;;;8.98;2.75;;;12.70;99.90;;;;;;6246104;23;20358;-87
2022/11/10 10:24:20;;;;;;;7.28;3.17;;;12.80;99.90;;;;;;6245903;23;20020;-89
2022/11/10 10:27:19;;;;;;;9.68;3.33;;;12.80;99.90;;;;;;6220434;23;20027;-89
2022/11/10 10:30:40;;;;;;;11.80;2.90;;;12.80;99.90;;;;;;6247108;23;20028;-88
2022/11/10 10:33:32;;;;;;;13.27;3.30;;;12.90;99.90;;;;;;6216316;23;20021;-90
2022/11/10 10:36:33;;;;;;;12.45;3.03;;;12.70;99.90;;;;;;6239814;23;20020;-90
2022/11/10 10:39:35;;;;;;;9.80;3.10;;;12.70;99.90;;;;;;6220565;23;20016;-87
2022/11/10 10:43:09;;;;;;;;;;;;;;;;;;;;;
2022/11/10 10:46:25;;;;;;;13.18;2.88;;;12.70;99.90;;;;;;6216233;23;20013;-88
2022/11/10 10:49:44;;;;;;;10.48;3.20;;;12.60;99.90;;;;;;6216050;23;20348;-87
2022/11/10 10:52:25;;;;;;;8.95;2.65;;;12.70;99.90;;;;;;6116229;23;20070;-88
2022/11/10 10:55:44;;;;;;;16.45;2.83;;;12.80;99.90;;;;;;6216087;23;20360;-90
2022/11/10 10:59:00;;;;;;;11.38;1.88;;;12.80;99.90;;;;;;6213924;23;20087;-86
2022/11/10 11:02:11;;;;;;;;;;;;;;;;;;;;;
2022/11/10 11:05:18;;;;;;;10.32;2.35;;;13.00;99.90;;;;;;6205845;23;20021;-90
2022/11/10 11:08:24;;;;;;;14.38;2.83;;;13.00;99.90;;;;;;6213839;23;20324;-89
2022/11/10 11:11:38;;;;;;;8.95;2.85;;;13.00;99.90;;;;;;6214929;23;20019;-92
2022/11/10 11:14:45;;;;;;;6.25;2.03;;;13.00;99.90;;;;;;6215777;23;20026;-87
2022/11/10 11:18:00;;;;;;;7.00;2.33;;;13.20;99.90;;;;;;6213910;23;20020;-90
2022/11/10 11:21:08;;;;;;;11.35;2.92;;;13.20;99.90;;;;;;6214140;23;20027;-90
2022/11/10 11:24:30;;;;;;;10.90;2.53;;;13.20;99.90;;;;;;6212833;23;20447;-89
2022/11/10 11:27:48;;;;;;;6.30;1.63;;;13.30;99.90;;;;;;6213433;23;20012;-87
2022/11/10 11:30:45;;;;;;;7.88;2.72;;;13.30;99.90;;;;;;6215594;23;20032;-86
2022/11/10 11:34:18;;;;;;;9.43;2.28;;;13.30;99.90;;;;;;6216537;23;20110;-87
2022/11/10 11:37:31;;;;;;;12.77;3.85;;;13.40;99.90;;;;;;6123368;23;20060;-87
2022/11/10 11:41:02;;;;;;;9.40;1.98;;;13.50;99.90;;;;;;6098996;23;20022;-88
2022/11/10 11:44:34;;;;;;;11.70;1.60;;;13.60;99.90;;;;;;6011572;23;20036;-89
2022/11/10 11:47:57;;;;;;;9.93;1.73;;;13.60;99.90;;;;;;5929263;24;20032;-88
2022/11/10 11:51:05;;;;;;;;;;;;;;;;;;;;;
2022/11/10 11:54:21;;;;;;;15.30;1.95;;;13.70;99.90;;;;;;5947905;23;20021;-87
2022/11/10 11:57:39;;;;;;;8.43;1.50;;;13.70;99.90;;;;;;5951638;24;20084;-90
2022/11/10 12:00:24;;;;;;;6.40;1.50;;;13.70;99.90;;;;;;5950870;23;20025;-88
2022/11/10 12:03:51;;;;;;;;;;;;;;;;;;;;;
2022/11/10 12:06:54;;;;;;;9.80;2.20;;;13.80;99.90;;;;;;5953421;24;20035;-88
2022/11/10 12:09:57;;;;;;;9.45;1.65;;;13.80;99.90;;;;;;5928950;24;20096;-89
2022/11/10 12:13:15;;;;;;;8.32;1.92;;;13.90;99.90;;;;;;5995613;23;20027;-91
2022/11/10 12:16:45;;;;;;;7.43;1.42;;;13.90;99.90;;;;;;6138766;23;20049;-88
2022/11/10 12:20:00;;;;;;;10.73;1.50;;;13.90;99.90;;;;;;6065428;23;20015;-88
2022/11/10 12:23:39;;;;;;;;;;;;;;;;;;;;;
2022/11/10 12:26:55;;;;;;;9.55;1.30;;;13.90;99.90;;;;;;6126298;23;20022;-87
2022/11/10 12:30:16;;;;;;;;;;;;;;;;;;;;;
2022/11/10 12:33:32;;;;;;;8.70;1.13;;;14.00;99.90;;;;;;6132099;23;20029;-88
2022/11/10 12:36:25;;;;;;;11.65;1.35;;;13.90;99.90;;;;;;6123510;23;20034;-88
2022/11/10 12:39:32;;;;;;;8.03;1.23;;;13.90;99.90;;;;;;6098937;23;20025;-88
2022/11/10 12:42:54;;;;;;;;;;;;;;;;;;;;;
2022/11/10 12:46:10;;;;;;;;;;;;;;;;;;;;;
2022/11/10 12:49:17;;;;;;;6.97;1.30;;;13.80;99.90;;;;;;6096835;23;20062;-88
2022/11/10 12:52:40;;;;;;;11.55;1.55;;;13.80;99.90;;;;;;6123228;23;20361;-89
2022/11/10 12:58:37;;;;;;;4.72;0.80;;;13.80;99.90;;;;;;6214778;22;20016;-89
2022/11/10 13:01:57;;;;;;;8.85;1.00;;;13.90;99.90;;;;;;6245337;23;20103;-88
2022/11/10 13:04:55;;;;;;;8.77;1.52;;;13.80;99.90;;;;;;6243720;23;20012;-88
2022/11/10 13:08:31;;;;;;;;;;;;;;;;;;;;;
2022/11/10 13:12:02;;;;;;;8.35;1.25;;;13.90;99.90;;;;;;6245850;23;20366;-87
2022/11/10 13:15:29;;;;;;;;;;;;;;;;;;;;;
2022/11/10 13:18:31;;;;;;;9.98;2.08;;;13.90;99.90;;;;;;6169398;23;20447;-88
2022/11/10 13:21:15;;;;;;;;;;;;;;;;;;;;;
2022/11/10 13:24:14;;;;;;;;;;;;;;;;;;;;;
2022/11/10 13:27:00;;;;;;;6.10;1.17;;;13.80;99.90;;;;;;6247222;23;20020;-87
2022/11/10 13:30:01;;;;;;;15.50;1.52;;;13.80;99.90;;;;;;6247294;23;20016;-86
2022/11/10 13:33:16;;;;;;;9.10;1.25;;;13.80;99.90;;;;;;6246383;23;20091;-87
2022/11/10 13:35:58;;;;;;;7.30;1.63;;;13.80;99.90;;;;;;6246317;23;20016;-87
2022/11/10 13:38:43;;;;;;;8.93;1.30;;;13.70;99.90;;;;;;6220586;23;20343;-87
2022/11/10 13:42:06;;;;;;;8.68;1.00;;;13.70;99.90;;;;;;6246082;23;20447;-87
2022/11/10 13:45:22;;;;;;;8.13;0.80;;;13.70;99.90;;;;;;6226520;23;20388;-87
2022/11/10 13:48:30;;;;;;;8.75;1.15;;;13.90;99.90;;;;;;6246419;23;20401;-88
2022/11/10 13:51:50;;;;;;;11.80;1.42;;;13.70;99.90;;;;;;6246910;23;20020;-89
2022/11/10 13:55:13;;;;;;;6.90;0.82;;;13.70;99.90;;;;;;6246870;23;20028;-87
2022/11/10 13:58:15;;;;;;;8.15;1.23;;;13.80;99.90;;;;;;6246423;23;20013;-86
2022/11/10 14:01:36;;;;;;;7.20;1.00;;;13.80;99.90;;;;;;6216599;23;20036;-87
2022/11/10 14:05:04;;;;;;;8.15;1.08;;;13.80;99.90;;;;;;6216418;23;20108;-88
2022/11/10 14:07:44;;;;;;;8.55;1.05;;;13.80;99.90;;;;;;6215769;23;20079;-86
2022/11/10 14:10:16;;;;;;;6.65;0.98;;;13.80;99.90;;;;;;6216699;23;20021;-87
2022/11/10 14:13:33;;;;;;;10.30;0.80;;;13.80;99.90;;;;;;6216897;23;20028;-88
2022/11/10 14:16:22;;;;;;;5.13;0.90;;;13.80;99.90;;;;;;6109723;23;20093;-85
2022/11/10 14:19:14;;;;;;;7.63;0.90;;;13.80;99.90;;;;;;6124104;23;20024;-87
2022/11/10 14:21:58;;;;;;;8.00;0.70;;;13.90;99.90;;;;;;6124164;23;20262;-85
2022/11/10 14:24:39;;;;;;;4.13;0.80;;;13.80;99.90;;;;;;6123335;23;20326;-86
2022/11/10 14:27:15;;;;;;;8.88;1.00;;;13.80;99.90;;;;;;6100108;23;20018;-86
2022/11/10 14:29:45;;;;;;;;;;;13.90;99.90;;;;;;6100551;23;20028;-85
2022/11/10 14:32:24;;;;;;;4.90;1.00;;;13.80;99.90;;;;;;6099120;23;19919;-86
2022/11/10 14:35:10;;;;;;;7.60;1.02;;;13.90;99.90;;;;;;6124519;23;20014;-86
2022/11/10 14:37:50;;;;;;;16.85;2.80;;;14.00;99.90;;;;;;6099727;23;20026;-86
2022/11/10 14:40:19;;;;;;;8.25;1.40;;;13.90;99.90;;;;;;6123639;23;20018;-87
2022/11/10 14:42:48;;;;;;;7.00;1.17;;;14.00;99.90;;;;;;6124223;23;20148;-85
2022/11/10 14:45:30;;;;;;;6.35;0.77;;;14.00;99.90;;;;;;6124152;23;20073;-86
2022/11/10 14:48:16;;;;;;;6.63;1.15;;;13.90;99.90;;;;;;6123246;23;20025;-86
2022/11/10 14:50:44;;;;;;;5.18;0.60;;;13.90;99.90;;;;;;6124169;23;20100;-85
2022/11/10 14:53:19;;;;;;;4.32;1.25;;;13.80;99.90;;;;;;6201667;23;20455;-86
2022/11/10 14:55:52;;;;;;;5.75;0.70;;;13.80;99.90;;;;;;6214707;23;20031;-85
2022/11/10 14:58:36;;;;;;;10.13;1.25;;;13.90;99.90;;;;;;6214071;23;20025;-86
2022/11/10 15:01:43;;;;;;;4.65;1.00;;;13.80;99.90;;;;;;6212526;23;20016;-87
2022/11/10 15:04:24;;;;;;;10.40;0.73;;;13.80;99.90;;;;;;6214464;23;20026;-86
2022/11/10 15:06:58;;;;;;;5.95;0.93;;;13.80;99.90;;;;;;6213996;23;20020;-88
2022/11/10 15:09:32;;;;;;;8.63;0.80;;;13.80;99.90;;;;;;6213583;23;20027;-86
2022/11/10 15:12:02;;;;;;;9.10;1.13;;;13.70;99.90;;;;;;6214187;23;20016;-87
2022/11/10 15:14:38;;;;;;;5.80;1.27;;;13.80;99.90;;;;;;6213751;23;20024;-87
2022/11/10 15:17:17;;;;;;;4.40;0.80;;;13.80;99.90;;;;;;6214573;23;20152;-86
2022/11/10 15:19:56;;;;;;;7.40;0.90;;;13.80;99.90;;;;;;6215502;23;20475;-87
2022/11/10 15:22:37;;;;;;;6.72;0.82;;;13.80;99.90;;;;;;6214283;23;20016;-86
2022/11/10 15:25:19;;;;;;;8.23;1.10;;;13.70;99.90;;;;;;6215023;23;20024;-84
2022/11/10 15:28:05;;;;;;;5.85;0.80;;;13.80;99.90;;;;;;6215562;23;20027;-85
2022/11/10 15:30:39;;;;;;;10.32;1.60;;;13.70;99.90;;;;;;6213503;23;20016;-87
2022/11/10 15:33:18;;;;;;;9.85;1.20;;;13.70;99.90;;;;;;6215789;23;20027;-86
2022/11/10 15:35:47;;;;;;;5.80;0.88;;;13.70;99.90;;;;;;6214674;23;20095;-86
2022/11/10 15:38:25;;;;;;;6.25;1.00;;;13.70;99.90;;;;;;6213168;23;20020;-86
2022/11/10 15:41:12;;;;;;;5.05;0.85;;;13.60;99.90;;;;;;6215585;23;20106;-85
2022/11/10 15:44:04;;;;;;;6.18;0.80;;;13.70;99.90;;;;;;6215316;23;20027;-86
2022/11/10 15:47:08;;;;;;;11.48;1.20;;;13.60;99.90;;;;;;6213477;23;20016;-87
2022/11/10 15:50:06;;;;;;;7.50;1.05;;;13.70;99.90;;;;;;6214440;23;20024;-87
2022/11/10 15:53:07;;;;;;;6.07;1.15;;;13.60;99.90;;;;;;6214229;23;20332;-86
2022/11/10 15:56:06;;;;;;;8.45;0.90;;;13.60;99.90;;;;;;6215391;23;20351;-87
2022/11/10 15:59:21;;;;;;;6.28;1.00;;;13.60;99.90;;;;;;6227547;23;20395;-85
2022/11/10 16:02:58;;;;;;;;;;;;;;;;;;;;;
2022/11/10 16:05:57;;;;;;;7.95;0.80;;;13.50;99.90;;;;;;6192969;23;20074;-86
2022/11/10 16:08:33;;;;;;;7.47;1.10;;;13.40;99.90;;;;;;6243039;23;20059;-86
2022/11/10 16:11:01;;;;;;;10.68;1.10;;;13.40;99.90;;;;;;6218160;23;20016;-86
2022/11/10 16:13:31;;;;;;;7.80;1.42;;;13.40;99.90;;;;;;6245125;23;20012;-84
2022/11/10 16:15:59;;;;;;;9.30;0.98;;;13.40;99.90;;;;;;6245417;23;20012;-84
2022/11/10 16:18:29;;;;;;;7.60;1.00;;;13.30;99.90;;;;;;6245532;23;20520;-85
2022/11/10 16:20:56;;;;;;;5.95;0.93;;;13.30;99.90;;;;;;6217869;23;20019;-88
2022/11/10 16:23:22;;;;;;;7.43;1.30;;;13.20;99.90;;;;;;6246048;23;20020;-87
2022/11/10 16:25:53;;;;;;;6.30;1.52;;;13.20;99.90;;;;;;6218549;23;20028;-86
2022/11/10 16:28:22;;;;;;;9.38;1.67;;;13.20;99.90;;;;;;6245117;23;20066;-84
2022/11/10 16:30:49;;;;;;;6.07;1.00;;;13.20;99.90;;;;;;6218794;23;20062;-85
2022/11/10 16:33:17;;;;;;;6.80;1.10;;;13.20;99.90;;;;;;6245811;23;20008;-85
2022/11/10 16:35:44;;;;;;;4.40;0.90;;;13.10;99.90;;;;;;6246143;23;20309;-84
2022/11/10 16:38:23;;;;;;;6.68;1.10;;;13.10;99.90;;;;;;6246124;23;20387;-92
2022/11/10 16:40:55;;;;;;;4.97;1.00;;;13.10;99.90;;;;;;6245323;23;20443;-84
2022/11/10 16:43:21;;;;;;;9.35;1.83;;;13.10;99.90;;;;;;6246007;23;20443;-87
2022/11/10 16:45:49;;;;;;;3.63;1.20;;;13.10;99.90;;;;;;6245663;23;20057;-91
2022/11/10 16:48:20;;;;;;;4.88;1.13;;;13.20;99.90;;;;;;6245759;23;20516;-90
2022/11/10 16:50:50;;;;;;;8.77;1.90;;;13.20;99.90;;;;;;6245822;23;20050;-84
2022/11/10 16:53:19;;;;;;;11.15;1.52;;;13.30;99.90;;;;;;6218836;23;20109;-84
2022/11/10 16:55:49;;;;;;;3.55;1.23;;;13.30;99.90;;;;;;6218182;23;20098;-84
2022/11/10 16:58:16;;;;;;;6.00;1.70;;;13.20;99.90;;;;;;6242455;23;20095;-86
2022/11/10 17:00:47;;;;;;;2.97;1.17;;;13.20;99.90;;;;;;6244547;23;20027;-85
2022/11/10 17:03:21;;;;;;;6.05;1.10;;;13.20;99.90;;;;;;6218364;23;20031;-85
2022/11/10 17:05:50;;;;;;;7.60;1.77;;;13.20;99.90;;;;;;6217819;23;20099;-85
2022/11/10 17:08:35;;;;;;;6.32;1.42;;;13.20;99.90;;;;;;6210044;23;20031;-86
2022/11/10 17:11:02;;;;;;;3.92;1.05;;;13.20;99.90;;;;;;6217412;23;20351;-85
2022/11/10 17:13:29;;;;;;;5.95;1.63;;;12.90;99.90;;;;;;6245082;23;20346;-87
2022/11/10 17:16:17;;;;;;;12.43;1.63;;;13.10;99.90;;;;;;6244770;23;20342;-86
2022/11/10 17:18:44;;;;;;;7.50;1.67;;;13.20;99.90;;;;;;6245164;23;20332;-85
2022/11/10 17:21:21;;;;;;;8.27;1.48;;;13.20;99.90;;;;;;6214878;23;20028;-86
2022/11/10 17:23:47;;;;;;;10.32;1.55;;;13.20;99.90;;;;;;6213760;23;20091;-88
2022/11/10 17:26:16;;;;;;;6.47;1.20;;;13.20;99.90;;;;;;6215080;23;20044;-86
2022/11/10 17:28:45;;;;;;;4.07;1.20;;;13.20;99.90;;;;;;6214535;23;20462;-85
2022/11/10 17:31:12;;;;;;;8.02;1.35;;;13.10;99.90;;;;;;6214241;23;20021;-86
2022/11/10 17:33:41;;;;;;;4.65;1.20;;;13.20;99.90;;;;;;6188013;23;20355;-86
2022/11/10 17:36:19;;;;;;;4.40;1.42;;;13.30;99.90;;;;;;6214740;23;20013;-90
2022/11/10 17:38:45;;;;;;;5.05;1.02;;;13.20;99.90;;;;;;6187376;23;20726;-86
2022/11/10 17:41:16;;;;;;;11.32;1.38;;;13.10;99.90;;;;;;6214624;23;20463;-87
2022/11/10 17:43:44;;;;;;;4.20;0.90;;;13.20;99.90;;;;;;6187972;23;20028;-86
2022/11/10 17:46:11;;;;;;;10.93;2.08;;;13.10;99.90;;;;;;6214356;23;20016;-86
2022/11/10 17:48:37;;;;;;;6.32;1.10;;;13.10;99.90;;;;;;6214546;23;20012;-87
2022/11/10 17:51:05;;;;;;;2.55;0.85;;;13.10;99.90;;;;;;6214622;23;20016;-86
2022/11/10 17:53:31;;;;;;;6.88;0.98;;;13.10;99.90;;;;;;6187497;23;20135;-88
2022/11/10 17:56:28;;;;;;;;;;;;;;;;;;;;;
2022/11/10 17:59:59;;;;;;;;;;;;;;;;;;;;;
2022/11/10 18:03:18;;;;;;;4.88;0.95;;;13.20;99.90;;;;;;6186618;23;20025;-91
2022/11/10 18:06:32;;;;;;;5.68;1.00;;;13.20;99.90;;;;;;6160231;23;20083;-91